Orbital elements of COSMOS 970 DEB
| Launched | 20 December 1977 |
| Flight ended | – |
| Launch site | Tyuratam Missile and Space Center, Kazakhstan (Also known as Baikonur Cosmodrome) |
| Owner | Commonwealth of Independent States (former USSR) |
| NORAD ID | 64968 |
| Date fetched |
Epoch osculation |
Inc. [°] |
Ecc. | RA asc node [hr] |
Arg Peri. [°] |
Mean anom [°] |
Mean motion [rev/day] |
Abs. mag |
| Date fetched |
Epoch osculation |
Inc. [°] |
Ecc. | RA asc node [hr] |
Arg Peri. [°] |
Mean anom [°] |
Mean motion [rev/day] |
Abs. mag |
| 2026 May 03 17:57 | 2026 Apr 30 15:06:26 | 65.8572 | 0.01191 | 16.4713 | 126.5280 | 255.4049 | 13.69919 | – |
| 2026 May 02 17:57 | 2026 Apr 30 15:06:26 | 65.8572 | 0.01191 | 16.4713 | 126.5280 | 255.4049 | 13.69919 | – |
| 2026 May 01 17:56 | 2026 Apr 30 15:06:26 | 65.8572 | 0.01191 | 16.4713 | 126.5280 | 255.4049 | 13.69919 | – |
| 2026 Apr 30 17:56 | 2026 Apr 30 15:06:26 | 65.8572 | 0.01191 | 16.4713 | 126.5280 | 255.4049 | 13.69919 | – |
| 2026 Apr 29 17:57 | 2026 Apr 23 16:38:17 | 65.8565 | 0.01196 | 17.6031 | 130.0994 | 255.4049 | 13.69919 | – |
| 2026 Apr 28 17:56 | 2026 Apr 23 16:38:17 | 65.8565 | 0.01196 | 17.6031 | 130.0994 | 255.4049 | 13.69919 | – |
| 2026 Apr 27 17:58 | 2026 Apr 23 16:38:17 | 65.8565 | 0.01196 | 17.6031 | 130.0994 | 255.4049 | 13.69919 | – |
| 2026 Apr 26 17:58 | 2026 Apr 23 16:38:17 | 65.8565 | 0.01196 | 17.6031 | 130.0994 | 255.4049 | 13.69919 | – |
| 2026 Apr 25 17:58 | 2026 Apr 23 16:38:17 | 65.8565 | 0.01196 | 17.6031 | 130.0994 | 255.4049 | 13.69919 | – |
| 2026 Apr 24 17:59 | 2026 Apr 23 16:38:17 | 65.8565 | 0.01196 | 17.6031 | 130.0994 | 255.4049 | 13.69919 | – |
| 2026 Apr 23 17:57 | 2026 Apr 19 04:46:58 | 65.8563 | 0.01198 | 18.3365 | 132.4199 | 255.4049 | 13.69919 | – |
| 2026 Apr 22 17:57 | 2026 Apr 19 04:46:58 | 65.8563 | 0.01198 | 18.3365 | 132.4199 | 255.4049 | 13.69919 | – |
| 2026 Apr 21 17:57 | 2026 Apr 19 04:46:58 | 65.8563 | 0.01198 | 18.3365 | 132.4199 | 255.4049 | 13.69919 | – |
| 2026 Apr 20 17:57 | 2026 Apr 19 04:46:58 | 65.8563 | 0.01198 | 18.3365 | 132.4199 | 255.4049 | 13.69919 | – |
| 2026 Apr 19 17:58 | 2026 Apr 19 04:46:58 | 65.8563 | 0.01198 | 18.3365 | 132.4199 | 255.4049 | 13.69919 | – |
| 2026 Apr 18 17:56 | 2026 Apr 12 19:36:11 | 65.8566 | 0.01201 | 19.3780 | 135.7059 | 255.4049 | 13.69919 | – |
| 2026 Apr 16 17:57 | 2026 Apr 12 19:36:11 | 65.8566 | 0.01201 | 19.3780 | 135.7059 | 255.4049 | 13.69919 | – |
| 2026 Apr 14 17:57 | 2026 Apr 12 19:36:11 | 65.8566 | 0.01201 | 19.3780 | 135.7059 | 255.4049 | 13.69919 | – |
| 2026 Apr 13 17:57 | 2026 Apr 12 19:36:11 | 65.8566 | 0.01201 | 19.3780 | 135.7059 | 255.4049 | 13.69919 | – |
| 2026 Apr 12 17:57 | 2026 Apr 07 20:27:06 | 65.8569 | 0.01204 | 20.1881 | 138.2735 | 255.4049 | 13.69919 | – |
| 2026 Apr 11 17:57 | 2026 Apr 07 20:27:06 | 65.8569 | 0.01204 | 20.1881 | 138.2735 | 255.4049 | 13.69919 | – |
| 2026 Apr 10 17:58 | 2026 Apr 07 20:27:06 | 65.8569 | 0.01204 | 20.1881 | 138.2735 | 255.4049 | 13.69919 | – |
| 2026 Apr 09 18:01 | 2026 Apr 07 20:27:06 | 65.8569 | 0.01204 | 20.1881 | 138.2735 | 255.4049 | 13.69919 | – |
| 2026 Apr 08 17:57 | 2026 Apr 07 20:27:06 | 65.8569 | 0.01204 | 20.1881 | 138.2735 | 255.4049 | 13.69919 | – |
| 2026 Apr 07 17:57 | 2026 Mar 31 01:35:15 | 65.8583 | 0.01208 | 21.4585 | 142.3121 | 255.4049 | 13.69919 | – |
| 2026 Apr 06 17:57 | 2026 Mar 31 01:35:15 | 65.8583 | 0.01208 | 21.4585 | 142.3121 | 255.4049 | 13.69919 | – |